sensor_id;sensor_type;location;lat;lon;timestamp;temperature;humidity
1123;DHT22;548;48.778;9.252;2023-06-10T01:59:29;16.60;99.90
1123;DHT22;548;48.778;9.252;2023-06-10T02:01:56;16.50;99.90
1123;DHT22;548;48.778;9.252;2023-06-10T02:04:23;16.40;99.90
1123;DHT22;548;48.778;9.252;2023-06-10T02:06:49;16.40;99.90
1123;DHT22;548;48.778;9.252;2023-06-10T02:09:17;16.40;99.90
1123;DHT22;548;48.778;9.252;2023-06-10T02:11:44;16.60;99.90
1123;DHT22;548;48.778;9.252;2023-06-10T02:14:11;16.40;99.90
1123;DHT22;548;48.778;9.252;2023-06-10T02:16:39;16.40;99.90
1123;DHT22;548;48.778;9.252;2023-06-10T02:19:06;16.40;99.90
1123;DHT22;548;48.778;9.252;2023-06-10T02:21:32;16.40;99.90
1123;DHT22;548;48.778;9.252;2023-06-10T02:24:00;16.30;99.90
1123;DHT22;548;48.778;9.252;2023-06-10T02:26:26;16.20;99.90
1123;DHT22;548;48.778;9.252;2023-06-10T02:28:53;16.20;99.90
1123;DHT22;548;48.778;9.252;2023-06-10T02:31:20;16.20;99.90
1123;DHT22;548;48.778;9.252;2023-06-10T02:33:48;16.30;99.90
1123;DHT22;548;48.778;9.252;2023-06-10T02:36:15;16.30;99.90
1123;DHT22;548;48.778;9.252;2023-06-10T02:38:42;16.30;99.90
1123;DHT22;548;48.778;9.252;2023-06-10T02:41:08;16.20;99.90
1123;DHT22;548;48.778;9.252;2023-06-10T02:43:35;16.20;99.90
1123;DHT22;548;48.778;9.252;2023-06-10T02:46:02;16.10;99.90
1123;DHT22;548;48.778;9.252;2023-06-10T02:48:28;16.10;99.90
1123;DHT22;548;48.778;9.252;2023-06-10T02:50:56;16.10;99.90
1123;DHT22;548;48.778;9.252;2023-06-10T02:53:23;16.20;99.90
1123;DHT22;548;48.778;9.252;2023-06-10T02:55:50;16.30;99.90
1123;DHT22;548;48.778;9.252;2023-06-10T02:58:16;16.20;99.90
1123;DHT22;548;48.778;9.252;2023-06-10T03:00:43;16.40;99.90
1123;DHT22;548;48.778;9.252;2023-06-10T03:03:10;16.50;99.90
1123;DHT22;548;48.778;9.252;2023-06-10T03:05:38;16.60;99.90
1123;DHT22;548;48.778;9.252;2023-06-10T03:08:07;16.60;99.90
1123;DHT22;548;48.778;9.252;2023-06-10T03:10:33;16.60;99.90
1123;DHT22;548;48.778;9.252;2023-06-10T03:13:00;16.50;99.90
1123;DHT22;548;48.778;9.252;2023-06-10T03:15:27;16.50;99.90
1123;DHT22;548;48.778;9.252;2023-06-10T03:17:54;16.50;99.90
1123;DHT22;548;48.778;9.252;2023-06-10T03:20:21;16.40;99.90
1123;DHT22;548;48.778;9.252;2023-06-10T03:22:48;16.30;99.90
1123;DHT22;548;48.778;9.252;2023-06-10T03:25:16;16.30;99.90
1123;DHT22;548;48.778;9.252;2023-06-10T03:27:43;16.30;99.90
1123;DHT22;548;48.778;9.252;2023-06-10T03:30:11;16.20;99.90
1123;DHT22;548;48.778;9.252;2023-06-10T03:32:38;16.20;99.90
1123;DHT22;548;48.778;9.252;2023-06-10T03:35:07;16.00;99.90
1123;DHT22;548;48.778;9.252;2023-06-10T03:37:34;16.10;99.90
1123;DHT22;548;48.778;9.252;2023-06-10T03:40:01;16.10;99.90
1123;DHT22;548;48.778;9.252;2023-06-10T03:42:30;16.10;99.90
1123;DHT22;548;48.778;9.252;2023-06-10T03:44:56;16.10;99.90
1123;DHT22;548;48.778;9.252;2023-06-10T03:47:23;16.00;99.90
1123;DHT22;548;48.778;9.252;2023-06-10T03:49:50;15.90;99.90
1123;DHT22;548;48.778;9.252;2023-06-10T03:52:17;16.30;99.90
1123;DHT22;548;48.778;9.252;2023-06-10T03:54:44;16.10;99.90
1123;DHT22;548;48.778;9.252;2023-06-10T03:57:11;16.10;99.90
1123;DHT22;548;48.778;9.252;2023-06-10T03:59:39;16.20;99.90
1123;DHT22;548;48.778;9.252;2023-06-10T04:02:06;16.30;99.90
1123;DHT22;548;48.778;9.252;2023-06-10T04:04:34;16.30;99.90
1123;DHT22;548;48.778;9.252;2023-06-10T04:07:01;16.40;99.90
1123;DHT22;548;48.778;9.252;2023-06-10T04:09:28;16.50;99.90
1123;DHT22;548;48.778;9.252;2023-06-10T04:11:55;16.50;99.90
1123;DHT22;548;48.778;9.252;2023-06-10T04:14:22;16.50;99.90
1123;DHT22;548;48.778;9.252;2023-06-10T04:16:50;16.50;99.90
1123;DHT22;548;48.778;9.252;2023-06-10T04:19:16;16.40;99.90
1123;DHT22;548;48.778;9.252;2023-06-10T04:21:43;16.60;99.90
1123;DHT22;548;48.778;9.252;2023-06-10T04:24:10;16.80;99.90
1123;DHT22;548;48.778;9.252;2023-06-10T04:26:37;17.40;99.90
1123;DHT22;548;48.778;9.252;2023-06-10T04:29:04;18.00;99.90
1123;DHT22;548;48.778;9.252;2023-06-10T04:31:31;18.80;99.90
1123;DHT22;548;48.778;9.252;2023-06-10T04:33:59;19.40;99.90
1123;DHT22;548;48.778;9.252;2023-06-10T04:36:27;19.90;99.90
1123;DHT22;548;48.778;9.252;2023-06-10T04:38:54;20.10;99.90
1123;DHT22;548;48.778;9.252;2023-06-10T04:41:21;20.70;99.90
1123;DHT22;548;48.778;9.252;2023-06-10T04:43:48;21.20;99.90
1123;DHT22;548;48.778;9.252;2023-06-10T04:46:15;21.40;99.90
1123;DHT22;548;48.778;9.252;2023-06-10T04:48:42;21.80;99.90
1123;DHT22;548;48.778;9.252;2023-06-10T04:51:13;22.30;99.90
1123;DHT22;548;48.778;9.252;2023-06-10T04:53:40;22.70;99.90
1123;DHT22;548;48.778;9.252;2023-06-10T04:56:07;23.00;99.90
1123;DHT22;548;48.778;9.252;2023-06-10T04:58:34;23.40;99.40
1123;DHT22;548;48.778;9.252;2023-06-10T05:01:01;23.70;98.70
1123;DHT22;548;48.778;9.252;2023-06-10T05:03:28;24.10;97.50
1123;DHT22;548;48.778;9.252;2023-06-10T05:05:54;23.90;97.10
1123;DHT22;548;48.778;9.252;2023-06-10T05:08:22;24.10;97.00
1123;DHT22;548;48.778;9.252;2023-06-10T05:10:49;24.50;96.50
1123;DHT22;548;48.778;9.252;2023-06-10T05:13:16;24.60;95.80
1123;DHT22;548;48.778;9.252;2023-06-10T05:15:43;25.00;95.20
1123;DHT22;548;48.778;9.252;2023-06-10T05:18:11;25.10;94.80
1123;DHT22;548;48.778;9.252;2023-06-10T05:20:38;25.60;94.10
1123;DHT22;548;48.778;9.252;2023-06-10T05:23:05;25.60;93.10
1123;DHT22;548;48.778;9.252;2023-06-10T05:25:33;25.40;93.50
1123;DHT22;548;48.778;9.252;2023-06-10T05:28:00;25.10;93.30
1123;DHT22;548;48.778;9.252;2023-06-10T05:30:27;25.10;93.10
1123;DHT22;548;48.778;9.252;2023-06-10T05:32:54;25.30;93.00
1123;DHT22;548;48.778;9.252;2023-06-10T05:35:21;25.70;92.30
1123;DHT22;548;48.778;9.252;2023-06-10T05:37:48;25.90;91.70
1123;DHT22;548;48.778;9.252;2023-06-10T05:40:15;26.40;90.80
1123;DHT22;548;48.778;9.252;2023-06-10T05:42:43;26.40;90.20
1123;DHT22;548;48.778;9.252;2023-06-10T05:45:10;26.50;90.30
1123;DHT22;548;48.778;9.252;2023-06-10T05:47:37;26.80;89.30
1123;DHT22;548;48.778;9.252;2023-06-10T05:50:05;27.00;88.80
1123;DHT22;548;48.778;9.252;2023-06-10T05:52:32;27.10;88.80
1123;DHT22;548;48.778;9.252;2023-06-10T05:54:59;27.80;85.80
1123;DHT22;548;48.778;9.252;2023-06-10T05:57:26;28.00;84.50
1123;DHT22;548;48.778;9.252;2023-06-10T05:59:54;28.30;82.70
1123;DHT22;548;48.778;9.252;2023-06-10T06:02:21;28.40;81.70
1123;DHT22;548;48.778;9.252;2023-06-10T06:04:47;28.70;80.50
1123;DHT22;548;48.778;9.252;2023-06-10T06:07:14;28.70;79.90
1123;DHT22;548;48.778;9.252;2023-06-10T06:09:41;29.00;78.70
1123;DHT22;548;48.778;9.252;2023-06-10T06:12:09;29.20;77.70
1123;DHT22;548;48.778;9.252;2023-06-10T06:14:38;28.80;79.00
1123;DHT22;548;48.778;9.252;2023-06-10T06:17:07;28.40;80.10
1123;DHT22;548;48.778;9.252;2023-06-10T06:19:33;28.90;78.90
1123;DHT22;548;48.778;9.252;2023-06-10T06:22:00;29.30;77.70
1123;DHT22;548;48.778;9.252;2023-06-10T06:24:28;29.60;76.20
1123;DHT22;548;48.778;9.252;2023-06-10T06:26:54;29.80;75.70
1123;DHT22;548;48.778;9.252;2023-06-10T06:29:21;29.70;76.50
1123;DHT22;548;48.778;9.252;2023-06-10T06:31:48;30.00;76.20
1123;DHT22;548;48.778;9.252;2023-06-10T06:34:15;30.90;72.50
1123;DHT22;548;48.778;9.252;2023-06-10T06:36:42;30.60;72.00
1123;DHT22;548;48.778;9.252;2023-06-10T06:39:09;30.70;72.40
1123;DHT22;548;48.778;9.252;2023-06-10T06:41:35;30.50;73.00
1123;DHT22;548;48.778;9.252;2023-06-10T06:44:02;31.20;71.00
1123;DHT22;548;48.778;9.252;2023-06-10T06:46:29;31.60;70.10
1123;DHT22;548;48.778;9.252;2023-06-10T06:48:56;31.70;69.20
1123;DHT22;548;48.778;9.252;2023-06-10T06:51:24;32.00;67.80
1123;DHT22;548;48.778;9.252;2023-06-10T06:53:50;32.40;66.40
1123;DHT22;548;48.778;9.252;2023-06-10T06:56:20;31.90;66.20
1123;DHT22;548;48.778;9.252;2023-06-10T06:58:47;31.40;67.50
1123;DHT22;548;48.778;9.252;2023-06-10T07:01:13;31.30;68.50
1123;DHT22;548;48.778;9.252;2023-06-10T07:03:40;31.70;67.30
1123;DHT22;548;48.778;9.252;2023-06-10T07:06:07;31.90;67.30
1123;DHT22;548;48.778;9.252;2023-06-10T07:08:35;31.70;67.40
1123;DHT22;548;48.778;9.252;2023-06-10T07:11:02;32.10;67.80
1123;DHT22;548;48.778;9.252;2023-06-10T07:13:28;32.20;66.40
1123;DHT22;548;48.778;9.252;2023-06-10T07:15:55;32.40;65.10
1123;DHT22;548;48.778;9.252;2023-06-10T07:18:22;32.70;64.80
1123;DHT22;548;48.778;9.252;2023-06-10T07:20:48;32.80;63.20
1123;DHT22;548;48.778;9.252;2023-06-10T07:23:15;32.80;63.90
1123;DHT22;548;48.778;9.252;2023-06-10T07:25:43;32.00;64.80
1123;DHT22;548;48.778;9.252;2023-06-10T07:28:10;31.90;65.30
1123;DHT22;548;48.778;9.252;2023-06-10T07:30:36;32.20;64.30
1123;DHT22;548;48.778;9.252;2023-06-10T07:33:03;32.40;64.00
1123;DHT22;548;48.778;9.252;2023-06-10T07:35:33;32.60;63.80
1123;DHT22;548;48.778;9.252;2023-06-10T07:37:59;32.80;64.50
1123;DHT22;548;48.778;9.252;2023-06-10T07:40:26;33.00;61.60
1123;DHT22;548;48.778;9.252;2023-06-10T07:42:55;32.80;61.80
1123;DHT22;548;48.778;9.252;2023-06-10T07:45:22;32.60;61.30
1123;DHT22;548;48.778;9.252;2023-06-10T07:47:48;32.40;61.80
1123;DHT22;548;48.778;9.252;2023-06-10T07:50:15;32.60;62.20
1123;DHT22;548;48.778;9.252;2023-06-10T07:52:42;33.30;61.30
1123;DHT22;548;48.778;9.252;2023-06-10T07:55:09;33.20;60.30
1123;DHT22;548;48.778;9.252;2023-06-10T07:57:36;32.40;62.40
1123;DHT22;548;48.778;9.252;2023-06-10T08:00:06;32.50;63.40
1123;DHT22;548;48.778;9.252;2023-06-10T08:02:33;32.90;63.20
1123;DHT22;548;48.778;9.252;2023-06-10T08:05:00;33.70;61.10
1123;DHT22;548;48.778;9.252;2023-06-10T08:07:27;33.80;60.10
1123;DHT22;548;48.778;9.252;2023-06-10T08:09:54;33.60;59.90
1123;DHT22;548;48.778;9.252;2023-06-10T08:12:20;33.40;59.60
1123;DHT22;548;48.778;9.252;2023-06-10T08:14:47;33.40;60.90
1123;DHT22;548;48.778;9.252;2023-06-10T08:17:15;33.30;59.70
1123;DHT22;548;48.778;9.252;2023-06-10T08:19:42;33.10;60.10
1123;DHT22;548;48.778;9.252;2023-06-10T08:22:09;33.00;59.90
1123;DHT22;548;48.778;9.252;2023-06-10T08:24:35;33.80;59.20
1123;DHT22;548;48.778;9.252;2023-06-10T08:27:02;33.90;58.70
1123;DHT22;548;48.778;9.252;2023-06-10T08:29:29;33.30;59.30
1123;DHT22;548;48.778;9.252;2023-06-10T08:31:57;32.20;60.80
1123;DHT22;548;48.778;9.252;2023-06-10T08:34:25;32.00;61.60
1123;DHT22;548;48.778;9.252;2023-06-10T08:36:52;32.00;62.00
1123;DHT22;548;48.778;9.252;2023-06-10T08:39:21;32.50;60.20
1123;DHT22;548;48.778;9.252;2023-06-10T08:41:56;33.00;59.90
1123;DHT22;548;48.778;9.252;2023-06-10T08:44:28;32.30;59.20
1123;DHT22;548;48.778;9.252;2023-06-10T08:46:56;31.40;60.30
1123;DHT22;548;48.778;9.252;2023-06-10T08:49:27;31.20;61.20
1123;DHT22;548;48.778;9.252;2023-06-10T08:51:59;31.30;62.00
1123;DHT22;548;48.778;9.252;2023-06-10T08:54:30;31.00;62.40
1123;DHT22;548;48.778;9.252;2023-06-10T08:56:59;31.40;60.70
1123;DHT22;548;48.778;9.252;2023-06-10T08:59:26;31.60;60.30
1123;DHT22;548;48.778;9.252;2023-06-10T09:01:53;31.20;60.90
1123;DHT22;548;48.778;9.252;2023-06-10T09:04:20;31.70;60.00
1123;DHT22;548;48.778;9.252;2023-06-10T09:06:50;32.30;59.30
1123;DHT22;548;48.778;9.252;2023-06-10T09:09:18;32.70;58.60
1123;DHT22;548;48.778;9.252;2023-06-10T09:11:45;32.90;57.80
1123;DHT22;548;48.778;9.252;2023-06-10T09:14:12;33.40;57.90
1123;DHT22;548;48.778;9.252;2023-06-10T09:16:39;33.70;57.20
1123;DHT22;548;48.778;9.252;2023-06-10T09:19:07;33.90;57.00
1123;DHT22;548;48.778;9.252;2023-06-10T09:21:34;33.80;56.90
1123;DHT22;548;48.778;9.252;2023-06-10T09:24:04;33.10;56.30
1123;DHT22;548;48.778;9.252;2023-06-10T09:26:31;32.20;58.30
1123;DHT22;548;48.778;9.252;2023-06-10T09:29:03;32.10;58.40
1123;DHT22;548;48.778;9.252;2023-06-10T09:31:30;32.60;59.00
1123;DHT22;548;48.778;9.252;2023-06-10T09:34:06;32.60;57.70
1123;DHT22;548;48.778;9.252;2023-06-10T09:36:33;32.30;58.20
1123;DHT22;548;48.778;9.252;2023-06-10T09:39:00;33.00;57.70
1123;DHT22;548;48.778;9.252;2023-06-10T09:41:33;33.40;56.60
1123;DHT22;548;48.778;9.252;2023-06-10T09:44:01;34.30;56.10
1123;DHT22;548;48.778;9.252;2023-06-10T09:46:31;33.80;55.50
1123;DHT22;548;48.778;9.252;2023-06-10T09:48:58;33.20;56.50
1123;DHT22;548;48.778;9.252;2023-06-10T09:51:25;34.00;55.40
1123;DHT22;548;48.778;9.252;2023-06-10T09:53:53;33.40;55.30
1123;DHT22;548;48.778;9.252;2023-06-10T09:56:20;32.90;55.80
1123;DHT22;548;48.778;9.252;2023-06-10T09:58:53;33.10;56.70
1123;DHT22;548;48.778;9.252;2023-06-10T10:01:20;34.20;55.80
1123;DHT22;548;48.778;9.252;2023-06-10T10:03:47;34.20;54.80
1123;DHT22;548;48.778;9.252;2023-06-10T10:06:15;32.60;55.80
1123;DHT22;548;48.778;9.252;2023-06-10T10:08:42;32.20;57.80
1123;DHT22;548;48.778;9.252;2023-06-10T10:11:09;32.20;57.80
1123;DHT22;548;48.778;9.252;2023-06-10T10:13:37;32.60;58.20
1123;DHT22;548;48.778;9.252;2023-06-10T10:16:09;33.50;57.00
1123;DHT22;548;48.778;9.252;2023-06-10T10:18:39;33.30;56.90
1123;DHT22;548;48.778;9.252;2023-06-10T10:21:12;32.80;58.50
1123;DHT22;548;48.778;9.252;2023-06-10T10:23:44;32.80;58.30
1123;DHT22;548;48.778;9.252;2023-06-10T10:26:15;32.30;58.30
1123;DHT22;548;48.778;9.252;2023-06-10T10:28:46;32.60;58.10
1123;DHT22;548;48.778;9.252;2023-06-10T10:31:18;33.20;57.20
1123;DHT22;548;48.778;9.252;2023-06-10T10:33:54;33.70;55.90
1123;DHT22;548;48.778;9.252;2023-06-10T10:36:22;33.40;55.60
1123;DHT22;548;48.778;9.252;2023-06-10T10:38:49;32.70;55.90
1123;DHT22;548;48.778;9.252;2023-06-10T10:41:16;32.20;56.10
1123;DHT22;548;48.778;9.252;2023-06-10T10:43:45;31.70;57.50
1123;DHT22;548;48.778;9.252;2023-06-10T10:46:14;32.30;56.80
1123;DHT22;548;48.778;9.252;2023-06-10T10:48:42;32.20;56.50
1123;DHT22;548;48.778;9.252;2023-06-10T10:51:10;32.80;54.90
1123;DHT22;548;48.778;9.252;2023-06-10T10:53:37;33.90;53.80
1123;DHT22;548;48.778;9.252;2023-06-10T10:56:05;34.60;52.80
1123;DHT22;548;48.778;9.252;2023-06-10T10:58:33;35.00;52.20
1123;DHT22;548;48.778;9.252;2023-06-10T11:01:00;35.60;52.10
1123;DHT22;548;48.778;9.252;2023-06-10T11:03:43;35.40;50.90
1123;DHT22;548;48.778;9.252;2023-06-10T11:06:13;35.60;50.00
1123;DHT22;548;48.778;9.252;2023-06-10T11:08:47;35.40;50.00
1123;DHT22;548;48.778;9.252;2023-06-10T11:11:20;34.70;51.80
1123;DHT22;548;48.778;9.252;2023-06-10T11:14:06;32.90;54.90
1123;DHT22;548;48.778;9.252;2023-06-10T11:16:39;32.90;55.40
1123;DHT22;548;48.778;9.252;2023-06-10T11:19:08;32.10;56.70
1123;DHT22;548;48.778;9.252;2023-06-10T11:21:57;32.80;55.90
1123;DHT22;548;48.778;9.252;2023-06-10T11:24:25;34.50;53.50
1123;DHT22;548;48.778;9.252;2023-06-10T11:26:52;35.30;52.00
1123;DHT22;548;48.778;9.252;2023-06-10T11:29:19;33.90;51.80
1123;DHT22;548;48.778;9.252;2023-06-10T11:31:49;32.00;55.10
1123;DHT22;548;48.778;9.252;2023-06-10T11:34:23;32.40;55.30
1123;DHT22;548;48.778;9.252;2023-06-10T11:36:52;32.80;54.30
1123;DHT22;548;48.778;9.252;2023-06-10T11:39:20;33.10;53.70
1123;DHT22;548;48.778;9.252;2023-06-10T11:41:48;32.30;54.80
1123;DHT22;548;48.778;9.252;2023-06-10T11:44:17;32.20;56.30
1123;DHT22;548;48.778;9.252;2023-06-10T11:46:44;33.40;54.70
1123;DHT22;548;48.778;9.252;2023-06-10T11:49:11;34.50;51.90
1123;DHT22;548;48.778;9.252;2023-06-10T11:51:40;35.20;50.80
1123;DHT22;548;48.778;9.252;2023-06-10T11:54:14;35.70;49.70
1123;DHT22;548;48.778;9.252;2023-06-10T11:56:41;35.80;49.00
1123;DHT22;548;48.778;9.252;2023-06-10T11:59:08;35.80;49.10
1123;DHT22;548;48.778;9.252;2023-06-10T12:01:35;37.20;48.10
1123;DHT22;548;48.778;9.252;2023-06-10T12:04:04;39.00;45.60
1123;DHT22;548;48.778;9.252;2023-06-10T12:06:43;39.40;45.20
1123;DHT22;548;48.778;9.252;2023-06-10T12:09:16;40.00;42.90
1123;DHT22;548;48.778;9.252;2023-06-10T12:11:44;38.90;43.00
1123;DHT22;548;48.778;9.252;2023-06-10T12:14:10;38.60;43.20
1123;DHT22;548;48.778;9.252;2023-06-10T12:16:37;38.40;43.20
1123;DHT22;548;48.778;9.252;2023-06-10T12:19:05;38.90;43.60
1123;DHT22;548;48.778;9.252;2023-06-10T12:21:33;38.00;42.70
1123;DHT22;548;48.778;9.252;2023-06-10T12:24:07;37.30;44.00
1123;DHT22;548;48.778;9.252;2023-06-10T12:26:38;36.80;45.20
1123;DHT22;548;48.778;9.252;2023-06-10T12:29:19;35.30;46.60
1123;DHT22;548;48.778;9.252;2023-06-10T12:32:00;33.70;48.70
1123;DHT22;548;48.778;9.252;2023-06-10T12:34:32;32.60;50.60
1123;DHT22;548;48.778;9.252;2023-06-10T12:37:00;32.90;50.70
1123;DHT22;548;48.778;9.252;2023-06-10T12:39:28;34.40;48.70
1123;DHT22;548;48.778;9.252;2023-06-10T12:41:55;34.70;48.50
1123;DHT22;548;48.778;9.252;2023-06-10T12:44:32;34.20;49.30
1123;DHT22;548;48.778;9.252;2023-06-10T12:47:00;32.80;50.50
1123;DHT22;548;48.778;9.252;2023-06-10T12:49:27;31.90;52.30
1123;DHT22;548;48.778;9.252;2023-06-10T12:51:54;31.50;53.40
1123;DHT22;548;48.778;9.252;2023-06-10T12:54:20;32.20;52.90
1123;DHT22;548;48.778;9.252;2023-06-10T12:56:49;33.70;50.90
1123;DHT22;548;48.778;9.252;2023-06-10T12:59:16;35.40;48.20
1123;DHT22;548;48.778;9.252;2023-06-10T13:01:43;36.30;46.80
1123;DHT22;548;48.778;9.252;2023-06-10T13:04:09;36.60;44.80
1123;DHT22;548;48.778;9.252;2023-06-10T13:06:37;37.40;44.90
1123;DHT22;548;48.778;9.252;2023-06-10T13:09:05;36.50;45.30
1123;DHT22;548;48.778;9.252;2023-06-10T13:11:33;36.00;46.40
1123;DHT22;548;48.778;9.252;2023-06-10T13:14:02;35.70;46.20
1123;DHT22;548;48.778;9.252;2023-06-10T13:16:30;34.90;46.90
1123;DHT22;548;48.778;9.252;2023-06-10T13:18:57;34.40;48.00
1123;DHT22;548;48.778;9.252;2023-06-10T13:21:24;34.50;47.60
1123;DHT22;548;48.778;9.252;2023-06-10T13:23:51;35.10;47.00
1123;DHT22;548;48.778;9.252;2023-06-10T13:26:17;35.40;45.80
1123;DHT22;548;48.778;9.252;2023-06-10T13:28:44;35.70;46.50
1123;DHT22;548;48.778;9.252;2023-06-10T13:31:12;36.60;45.00
1123;DHT22;548;48.778;9.252;2023-06-10T13:33:39;36.90;44.20
1123;DHT22;548;48.778;9.252;2023-06-10T13:36:06;36.50;44.50
1123;DHT22;548;48.778;9.252;2023-06-10T13:38:32;35.20;45.90
1123;DHT22;548;48.778;9.252;2023-06-10T13:40:59;34.30;47.40
1123;DHT22;548;48.778;9.252;2023-06-10T13:43:26;33.70;47.60
1123;DHT22;548;48.778;9.252;2023-06-10T13:45:52;32.30;49.40
1123;DHT22;548;48.778;9.252;2023-06-10T13:48:20;31.60;50.00
1123;DHT22;548;48.778;9.252;2023-06-10T13:50:47;31.80;49.50
1123;DHT22;548;48.778;9.252;2023-06-10T13:53:14;33.20;48.70
1123;DHT22;548;48.778;9.252;2023-06-10T13:55:41;33.60;48.40
1123;DHT22;548;48.778;9.252;2023-06-10T13:58:07;34.70;47.60
1123;DHT22;548;48.778;9.252;2023-06-10T14:00:34;35.80;46.70
1123;DHT22;548;48.778;9.252;2023-06-10T14:03:01;36.30;45.20
1123;DHT22;548;48.778;9.252;2023-06-10T14:05:29;36.00;45.60
1123;DHT22;548;48.778;9.252;2023-06-10T14:07:57;34.20;46.90
1123;DHT22;548;48.778;9.252;2023-06-10T14:10:24;32.90;49.10
1123;DHT22;548;48.778;9.252;2023-06-10T14:12:51;31.50;50.90
1123;DHT22;548;48.778;9.252;2023-06-10T14:15:19;30.40;53.10
1123;DHT22;548;48.778;9.252;2023-06-10T14:17:45;30.00;54.20
1123;DHT22;548;48.778;9.252;2023-06-10T14:20:12;30.30;54.50
1123;DHT22;548;48.778;9.252;2023-06-10T14:22:40;31.00;53.60
1123;DHT22;548;48.778;9.252;2023-06-10T14:25:08;31.70;52.60
1123;DHT22;548;48.778;9.252;2023-06-10T14:27:34;32.10;51.50
1123;DHT22;548;48.778;9.252;2023-06-10T14:30:01;32.10;50.30
1123;DHT22;548;48.778;9.252;2023-06-10T14:32:29;32.40;51.10
1123;DHT22;548;48.778;9.252;2023-06-10T14:34:56;33.10;49.70
1123;DHT22;548;48.778;9.252;2023-06-10T14:37:22;33.30;50.10
1123;DHT22;548;48.778;9.252;2023-06-10T14:39:50;33.30;50.90
1123;DHT22;548;48.778;9.252;2023-06-10T14:42:17;32.50;50.40
1123;DHT22;548;48.778;9.252;2023-06-10T14:44:44;31.80;51.70
1123;DHT22;548;48.778;9.252;2023-06-10T14:47:10;31.10;52.90
1123;DHT22;548;48.778;9.252;2023-06-10T14:49:37;31.10;52.80
1123;DHT22;548;48.778;9.252;2023-06-10T14:52:04;31.00;52.60
1123;DHT22;548;48.778;9.252;2023-06-10T14:54:31;30.80;53.00
1123;DHT22;548;48.778;9.252;2023-06-10T14:56:59;31.20;53.60
1123;DHT22;548;48.778;9.252;2023-06-10T14:59:26;31.10;53.10
1123;DHT22;548;48.778;9.252;2023-06-10T15:01:52;30.70;53.10
1123;DHT22;548;48.778;9.252;2023-06-10T15:04:19;30.30;54.80
1123;DHT22;548;48.778;9.252;2023-06-10T15:06:46;30.30;55.80
1123;DHT22;548;48.778;9.252;2023-06-10T15:09:14;30.40;54.80
1123;DHT22;548;48.778;9.252;2023-06-10T15:11:41;30.50;55.10
1123;DHT22;548;48.778;9.252;2023-06-10T15:14:09;30.40;55.50
1123;DHT22;548;48.778;9.252;2023-06-10T15:16:36;30.10;55.20
1123;DHT22;548;48.778;9.252;2023-06-10T15:19:02;29.90;55.80
1123;DHT22;548;48.778;9.252;2023-06-10T15:21:32;29.80;55.60
1123;DHT22;548;48.778;9.252;2023-06-10T15:23:58;29.60;54.80
1123;DHT22;548;48.778;9.252;2023-06-10T15:26:25;29.60;55.60
1123;DHT22;548;48.778;9.252;2023-06-10T15:28:52;29.70;56.10
1123;DHT22;548;48.778;9.252;2023-06-10T15:31:20;29.70;56.60
1123;DHT22;548;48.778;9.252;2023-06-10T15:33:47;29.70;55.90
1123;DHT22;548;48.778;9.252;2023-06-10T15:36:13;29.80;56.30
1123;DHT22;548;48.778;9.252;2023-06-10T15:38:40;29.80;56.10
1123;DHT22;548;48.778;9.252;2023-06-10T15:41:07;29.90;56.20
1123;DHT22;548;48.778;9.252;2023-06-10T15:43:33;29.80;55.00
1123;DHT22;548;48.778;9.252;2023-06-10T15:46:00;29.50;55.30
1123;DHT22;548;48.778;9.252;2023-06-10T15:48:29;29.60;55.30
1123;DHT22;548;48.778;9.252;2023-06-10T15:50:55;29.60;54.80
1123;DHT22;548;48.778;9.252;2023-06-10T15:53:22;29.30;54.80
1123;DHT22;548;48.778;9.252;2023-06-10T15:55:49;29.10;55.90
1123;DHT22;548;48.778;9.252;2023-06-10T15:58:15;29.20;55.90
1123;DHT22;548;48.778;9.252;2023-06-10T16:00:42;29.10;55.70
1123;DHT22;548;48.778;9.252;2023-06-10T16:03:09;28.90;56.10
1123;DHT22;548;48.778;9.252;2023-06-10T16:05:37;28.90;56.90
1123;DHT22;548;48.778;9.252;2023-06-10T16:08:04;28.90;56.80
1123;DHT22;548;48.778;9.252;2023-06-10T16:10:31;28.90;57.20
1123;DHT22;548;48.778;9.252;2023-06-10T16:12:57;29.10;57.20
1123;DHT22;548;48.778;9.252;2023-06-10T16:15:24;29.10;57.40
1123;DHT22;548;48.778;9.252;2023-06-10T16:17:51;29.20;57.10
1123;DHT22;548;48.778;9.252;2023-06-10T16:20:17;29.30;57.30
1123;DHT22;548;48.778;9.252;2023-06-10T16:22:46;29.40;57.70
1123;DHT22;548;48.778;9.252;2023-06-10T16:25:12;29.50;57.20
1123;DHT22;548;48.778;9.252;2023-06-10T16:27:39;29.40;57.30
1123;DHT22;548;48.778;9.252;2023-06-10T16:30:07;29.50;57.00
1123;DHT22;548;48.778;9.252;2023-06-10T16:32:33;29.40;56.70
1123;DHT22;548;48.778;9.252;2023-06-10T16:35:00;29.30;55.70
1123;DHT22;548;48.778;9.252;2023-06-10T16:37:27;29.10;55.40
1123;DHT22;548;48.778;9.252;2023-06-10T16:39:55;28.90;55.80
1123;DHT22;548;48.778;9.252;2023-06-10T16:42:22;28.80;56.40
1123;DHT22;548;48.778;9.252;2023-06-10T16:44:49;28.70;56.80
1123;DHT22;548;48.778;9.252;2023-06-10T16:47:15;28.60;57.20
1123;DHT22;548;48.778;9.252;2023-06-10T16:49:42;28.70;57.90
1123;DHT22;548;48.778;9.252;2023-06-10T16:52:09;28.80;57.80
1123;DHT22;548;48.778;9.252;2023-06-10T16:54:35;28.90;57.50
1123;DHT22;548;48.778;9.252;2023-06-10T16:57:04;29.10;57.20
1123;DHT22;548;48.778;9.252;2023-06-10T16:59:31;29.10;57.10
1123;DHT22;548;48.778;9.252;2023-06-10T17:01:58;29.10;57.60
1123;DHT22;548;48.778;9.252;2023-06-10T17:04:25;29.10;58.20
1123;DHT22;548;48.778;9.252;2023-06-10T17:06:52;29.00;58.10
1123;DHT22;548;48.778;9.252;2023-06-10T17:09:19;29.10;58.10
1123;DHT22;548;48.778;9.252;2023-06-10T17:11:46;29.00;58.00
1123;DHT22;548;48.778;9.252;2023-06-10T17:14:14;28.90;58.40
1123;DHT22;548;48.778;9.252;2023-06-10T17:16:40;28.70;59.20
1123;DHT22;548;48.778;9.252;2023-06-10T17:19:07;28.50;59.30
1123;DHT22;548;48.778;9.252;2023-06-10T17:21:34;28.30;59.80
1123;DHT22;548;48.778;9.252;2023-06-10T17:24:02;28.20;59.90
1123;DHT22;548;48.778;9.252;2023-06-10T17:26:28;28.20;60.40
1123;DHT22;548;48.778;9.252;2023-06-10T17:28:55;28.20;60.60
1123;DHT22;548;48.778;9.252;2023-06-10T17:31:23;28.20;60.90
1123;DHT22;548;48.778;9.252;2023-06-10T17:33:50;28.10;60.90
1123;DHT22;548;48.778;9.252;2023-06-10T17:36:16;28.10;61.10
1123;DHT22;548;48.778;9.252;2023-06-10T17:38:43;28.00;62.00
1123;DHT22;548;48.778;9.252;2023-06-10T17:41:10;27.90;62.70
1123;DHT22;548;48.778;9.252;2023-06-10T17:43:37;27.90;63.10
1123;DHT22;548;48.778;9.252;2023-06-10T17:46:03;27.70;63.50
1123;DHT22;548;48.778;9.252;2023-06-10T17:48:31;27.60;64.10
1123;DHT22;548;48.778;9.252;2023-06-10T17:50:58;27.50;64.80
1123;DHT22;548;48.778;9.252;2023-06-10T17:53:25;27.30;64.80
1123;DHT22;548;48.778;9.252;2023-06-10T17:55:52;27.20;65.10
1123;DHT22;548;48.778;9.252;2023-06-10T17:58:18;27.00;65.70
1123;DHT22;548;48.778;9.252;2023-06-10T18:00:45;27.00;66.30
1123;DHT22;548;48.778;9.252;2023-06-10T18:03:12;26.90;66.60
1123;DHT22;548;48.778;9.252;2023-06-10T18:05:42;26.80;66.70
1123;DHT22;548;48.778;9.252;2023-06-10T18:08:08;26.80;67.50
1123;DHT22;548;48.778;9.252;2023-06-10T18:10:35;26.70;67.50
1123;DHT22;548;48.778;9.252;2023-06-10T18:13:02;26.70;68.00
1123;DHT22;548;48.778;9.252;2023-06-10T18:15:29;26.70;67.80
1123;DHT22;548;48.778;9.252;2023-06-10T18:17:56;26.60;68.40